Time;durP1;ratioP1;P1;durP2;ratioP2;P2;SDS_P1;SDS_P2;PMS_P1;PMS_P2;Temp;Humidity;BMP_temperature;BMP_pressure;BME280_temperature;BME280_humidity;BME280_pressure;Samples;Min_cycle;Max_cycle;Signal;HPM_P1;HPM_P2
2022/12/08 00:01:45;;;;;;;34.67;22.40;;;;;;;;;;5012401;28;20074;-85
2022/12/08 00:04:10;;;;;;;36.90;25.45;;;;;;;;;;5010386;28;20054;-85
2022/12/08 00:09:25;;;;;;;37.67;27.40;;;;;;;;;;4995790;28;20173;-86
2022/12/08 00:11:57;;;;;;;37.88;27.40;;;;;;;;;;5020789;28;20072;-85
2022/12/08 00:14:34;;;;;;;41.85;31.50;;;;;;;2.12;100.00;67007.91;4978584;28;20042;-85
2022/12/08 00:17:00;;;;;;;41.75;31.65;;;;;;;2.10;100.00;67005.63;5003152;28;20041;-85
2022/12/08 00:19:27;;;;;;;41.20;26.85;;;;;;;2.05;100.00;67005.81;5011669;28;20095;-85
2022/12/08 00:21:53;;;;;;;43.50;30.58;;;;;;;2.04;100.00;66999.44;5009700;28;20104;-85
2022/12/08 00:24:19;;;;;;;40.85;32.58;;;;;;;2.02;100.00;67003.00;5012151;28;20038;-86
2022/12/08 00:26:45;;;;;;;42.40;32.72;;;;;;;1.98;100.00;66997.94;5011261;28;20041;-84
2022/12/08 00:29:11;;;;;;;40.45;26.08;;;;;;;2.01;100.00;67001.91;5006483;28;20120;-85
2022/12/08 00:31:37;;;;;;;37.80;24.35;;;;;;;;;;5011630;28;20053;-85
2022/12/08 00:34:02;;;;;;;43.72;34.00;;;;;;;;;;4994677;28;20042;-85
2022/12/08 00:36:28;;;;;;;36.58;22.25;;;;;;;1.92;100.00;66993.81;4990364;28;20046;-85
2022/12/08 00:38:53;;;;;;;43.58;27.13;;;;;;;1.92;100.00;66986.50;5002179;28;20034;-85
2022/12/08 00:42:10;;;;;;;40.20;25.60;;;;;;;;;;5010184;28;20055;-85
2022/12/08 00:44:10;;;;;;;42.53;28.50;;;;;;;1.96;100.00;66991.00;5002988;28;20617;-85
2022/12/08 00:46:36;;;;;;;37.03;23.27;;;;;;;1.95;100.00;66989.88;5010002;28;20034;-84
2022/12/08 00:49:03;;;;;;;44.05;28.13;;;;;;;1.94;100.00;66993.44;5007359;28;20405;-85
2022/12/08 00:51:28;;;;;;;47.97;36.92;;;;;;;1.92;100.00;66991.75;5011247;28;20034;-85
2022/12/08 00:53:54;;;;;;;42.33;24.83;;;;;;;1.92;100.00;66991.75;5008187;28;20092;-84
2022/12/08 00:56:19;;;;;;;50.10;37.55;;;;;;;1.88;100.00;66987.25;5009406;28;20053;-85
2022/12/08 00:58:44;;;;;;;43.15;30.73;;;;;;;;;;5007985;28;20394;-84
2022/12/08 01:01:11;;;;;;;42.83;28.30;;;;;;;1.90;100.00;66988.91;5008768;28;20068;-85
2022/12/08 01:03:36;;;;;;;41.05;26.58;;;;;;;1.88;100.00;66987.25;5018366;28;20034;-85
2022/12/08 01:06:02;;;;;;;46.17;33.50;;;;;;;;;;5029522;28;20046;-85
2022/12/08 01:08:28;;;;;;;45.42;32.22;;;;;;;1.86;100.00;66977.09;5025239;28;21168;-85
2022/12/08 01:10:53;;;;;;;51.08;34.30;;;;;;;1.86;100.00;66979.72;5009357;28;20092;-85
2022/12/08 01:13:18;;;;;;;41.55;28.02;;;;;;;1.85;100.00;66983.88;5010636;28;20410;-85
2022/12/08 01:15:44;;;;;;;51.58;37.80;;;;;;;;;;5007678;28;20045;-85
2022/12/08 01:18:09;;;;;;;46.17;30.73;;;;;;;;;;5018772;28;20117;-85
2022/12/08 01:20:34;;;;;;;44.72;27.00;;;;;;;;;;5008637;28;20068;-85
2022/12/08 01:22:59;;;;;;;45.50;32.58;;;;;;;1.84;100.00;66982.72;5008985;28;20050;-86
2022/12/08 01:25:25;;;;;;;54.95;39.03;;;;;;;1.86;100.00;66984.97;5009939;28;20292;-85
2022/12/08 01:27:52;;;;;;;48.03;32.03;;;;;;;1.85;100.00;66983.88;5009928;28;20092;-85
2022/12/08 01:30:18;;;;;;;47.33;31.92;;;;;;;1.89;100.00;66982.56;5006578;28;20104;-85
2022/12/08 01:32:43;;;;;;;53.08;38.75;;;;;;;;;;5010146;28;20063;-85
2022/12/08 01:35:08;;;;;;;53.20;37.78;;;;;;;;;;4989166;28;20403;-86
2022/12/08 01:37:34;;;;;;;46.38;30.38;;;;;;;1.96;100.00;66998.31;5009250;28;20038;-86
2022/12/08 01:39:59;;;;;;;55.47;39.70;;;;;;;;;;5007750;28;20045;-86
2022/12/08 01:42:24;;;;;;;50.35;32.25;;;;;;;;;;5009452;28;20050;-86
2022/12/08 01:44:58;;;;;;;59.10;40.40;;;;;;;2.00;100.00;66994.94;5003927;28;20496;-86
2022/12/08 01:47:24;;;;;;;48.72;28.10;;;;;;;;;;5017737;28;20503;-85
2022/12/08 01:49:50;;;;;;;50.58;33.42;;;;;;;1.99;100.00;66999.63;5014356;28;20050;-85
2022/12/08 01:52:24;;;;;;;45.00;27.40;;;;;;;2.00;100.00;67000.75;5009193;28;20048;-86
2022/12/08 01:55:15;;;;;;;46.10;32.20;;;;;;;2.03;100.00;67004.13;5009495;28;20540;-86
2022/12/08 01:57:46;;;;;;;51.40;36.00;;;;;;;2.07;100.00;67002.25;4986246;28;20045;-87
2022/12/08 02:00:15;;;;;;;43.70;28.00;;;;;;;2.06;100.00;67006.94;4990032;28;20047;-87
2022/12/08 02:02:57;;;;;;;45.75;33.38;;;;;;;;;;4986961;28;20042;-87
2022/12/08 02:05:27;;;;;;;46.83;33.28;;;;;;;2.08;100.00;67008.66;5028373;28;20707;-86
2022/12/08 02:07:53;;;;;;;45.22;28.63;;;;;;;;;;5029147;28;20045;-86
2022/12/08 02:10:21;;;;;;;46.58;32.38;;;;;;;2.11;100.00;67012.03;5008656;28;20077;-86
2022/12/08 02:12:49;;;;;;;44.50;28.65;;;;;;;2.12;100.00;67013.69;5010506;28;20096;-84
2022/12/08 02:15:14;;;;;;;44.20;33.70;;;;;;;;;;4995209;28;20057;-84
2022/12/08 02:18:15;;;;;;;48.38;33.15;;;;;;;;;;4997304;28;20557;-84
2022/12/08 02:20:52;;;;;;;46.38;32.90;;;;;;;;;;4905953;29;20054;-83
2022/12/08 02:23:29;;;;;;;42.15;26.38;;;;;;;2.19;100.00;67021.59;4995374;28;20042;-85
2022/12/08 02:26:23;;;;;;;40.95;24.65;;;;;;;2.20;100.00;67016.91;5003436;28;20072;-84
2022/12/08 02:29:22;;;;;;;45.38;30.13;;;;;;;2.21;100.00;67023.28;4988728;28;20044;-84
2022/12/08 02:32:19;;;;;;;42.42;28.20;;;;;;;2.22;100.00;67024.97;4979993;28;20137;-84
2022/12/08 02:34:53;;;;;;;39.50;27.40;;;;;;;2.24;100.00;67021.41;4997979;28;20041;-84
2022/12/08 02:37:33;;;;;;;46.45;34.08;;;;;;;2.23;100.00;67020.28;4988640;28;20623;-84
2022/12/08 02:40:27;;;;;;;41.13;32.05;;;;;;;2.26;100.00;67023.66;4995471;28;20518;-85
2022/12/08 02:43:15;;;;;;;37.28;23.80;;;;;;;2.28;100.00;67031.19;5001927;28;20080;-85
2022/12/08 02:45:52;;;;;;;37.63;24.83;;;;;;;;;;4990110;28;20041;-85
2022/12/08 02:48:17;;;;;;;37.20;26.13;;;;;;;;;;5016145;28;20060;-84
2022/12/08 02:50:42;;;;;;;39.55;25.73;;;;;;;;;;5009083;28;20132;-84
2022/12/08 02:53:08;;;;;;;38.67;25.08;;;;;;;;;;4993170;28;20472;-85
2022/12/08 02:55:44;;;;;;;41.67;29.48;;;;;;;2.40;100.00;67046.75;5013638;28;20083;-84
2022/12/08 02:58:28;;;;;;;36.20;25.90;;;;;;;2.41;100.00;67050.50;5020247;28;20131;-85
2022/12/08 03:01:12;;;;;;;43.30;30.45;;;;;;;2.41;100.00;67037.94;5006368;28;20092;-85
2022/12/08 03:04:21;;;;;;;43.20;30.23;;;;;;;2.44;100.00;67043.94;4993909;28;20041;-85
2022/12/08 03:07:11;;;;;;;33.22;22.15;;;;;;;2.43;100.00;67042.81;4999489;28;20335;-85
2022/12/08 03:10:12;;;;;;;28.75;17.23;;;;;;;2.45;100.00;67050.34;4995674;28;20056;-86
2022/12/08 03:12:42;;;;;;;42.47;31.13;;;;;;;;;;4981673;28;20038;-85
2022/12/08 03:15:09;;;;;;;42.30;27.33;;;;;;;;;;4989357;28;20390;-85
2022/12/08 03:17:37;;;;;;;41.90;32.70;;;;;;;2.52;100.00;67051.84;5008544;28;20068;-86
2022/12/08 03:20:10;;;;;;;41.47;27.90;;;;;;;2.54;100.00;67059.91;5015230;28;20041;-85
2022/12/08 03:22:38;;;;;;;45.58;31.20;;;;;;;2.56;100.00;67064.78;5008940;28;20148;-86
2022/12/08 03:25:05;;;;;;;38.33;24.67;;;;;;;2.58;100.00;67064.41;5001582;28;20038;-86
2022/12/08 03:27:31;;;;;;;35.60;19.65;;;;;;;2.61;100.00;67067.22;5008447;28;20280;-85
2022/12/08 03:29:56;;;;;;;39.33;21.15;;;;;;;;;;5001427;28;20038;-85
2022/12/08 03:32:32;;;;;;;38.60;27.10;;;;;;;2.66;100.00;67068.16;4996012;28;20695;-85
2022/12/08 03:35:03;;;;;;;46.97;31.73;;;;;;;2.67;100.00;67074.00;5006264;28;20565;-85
2022/12/08 03:37:28;;;;;;;46.13;31.80;;;;;;;;;;4987125;28;20128;-85
2022/12/08 03:39:53;;;;;;;40.47;25.67;;;;;;;;;;5012775;28;20469;-85
2022/12/08 03:42:19;;;;;;;45.38;33.08;;;;;;;;;;5011738;28;20045;-85
2022/12/08 03:44:44;;;;;;;42.90;26.63;;;;;;;;;;5017645;28;20060;-85
2022/12/08 03:47:09;;;;;;;45.72;32.03;;;;;;;;;;4998673;28;20328;-86
2022/12/08 03:49:35;;;;;;;44.47;29.75;;;;;;;;;;5023934;28;20076;-84
2022/12/08 03:52:00;;;;;;;40.67;22.38;;;;;;;;;;5025506;28;20081;-86
2022/12/08 03:54:25;;;;;;;43.17;26.65;;;;;;;;;;5011833;28;20083;-85
2022/12/08 03:56:50;;;;;;;52.15;31.83;;;;;;;2.81;100.00;67084.50;5023050;28;20097;-86
2022/12/08 03:59:16;;;;;;;45.67;29.27;;;;;;;;;;5032384;28;20057;-84
2022/12/08 04:01:41;;;;;;;40.35;21.50;;;;;;;;;;5011842;28;20040;-85
2022/12/08 04:04:06;;;;;;;41.20;25.77;;;;;;;;;;5020612;28;20124;-84
2022/12/08 04:06:32;;;;;;;44.28;27.80;;;;;;;2.84;100.00;67085.25;5011987;28;20668;-85
2022/12/08 04:08:57;;;;;;;35.05;20.63;;;;;;;;;;5014011;28;20095;-86
2022/12/08 04:11:22;;;;;;;42.30;25.23;;;;;;;2.84;100.00;67092.59;5019754;28;20049;-85
2022/12/08 04:13:48;;;;;;;46.45;33.10;;;;;;;2.81;100.00;67084.50;5029698;28;20672;-85
2022/12/08 04:16:20;;;;;;;36.65;23.38;;;;;;;2.81;100.00;67089.78;5029737;28;20109;-87
2022/12/08 04:18:46;;;;;;;42.47;31.55;;;;;;;;;;5030945;28;20045;-85
2022/12/08 04:21:11;;;;;;;34.97;20.23;;;;;;;;;;5018130;28;20180;-89
2022/12/08 04:23:36;;;;;;;32.97;21.05;;;;;;;2.81;100.00;67092.41;5032042;28;20222;-85
2022/12/08 04:26:02;;;;;;;39.72;30.05;;;;;;;;;;5035662;28;20038;-86
2022/12/08 04:28:28;;;;;;;38.75;21.40;;;;;;;2.82;100.00;67085.66;5028558;28;20068;-86
2022/12/08 04:30:54;;;;;;;43.65;31.08;;;;;;;2.84;100.00;67087.91;5013391;28;20420;-85
2022/12/08 04:33:19;;;;;;;44.28;27.65;;;;;;;2.83;100.00;67092.03;5022953;28;20124;-86
2022/12/08 04:35:45;;;;;;;38.85;24.75;;;;;;;;;;5037381;28;20132;-86
2022/12/08 04:38:10;;;;;;;40.83;24.25;;;;;;;2.82;100.00;67090.91;5039831;28;20121;-86
2022/12/08 04:40:35;;;;;;;36.92;25.17;;;;;;;;;;5036555;28;20045;-87
2022/12/08 04:43:01;;;;;;;34.45;20.70;;;;;;;2.80;100.00;67083.41;5032850;28;20225;-87
2022/12/08 04:45:26;;;;;;;41.78;27.33;;;;;;;2.84;100.00;67087.34;5008399;28;20042;-86
2022/12/08 04:47:51;;;;;;;34.22;21.90;;;;;;;;;;5024556;28;20087;-85
2022/12/08 04:50:17;;;;;;;41.17;28.73;;;;;;;2.80;100.00;67090.72;5021678;28;20455;-86
2022/12/08 04:52:42;;;;;;;35.33;21.33;;;;;;;2.79;100.00;67082.28;5033057;28;20045;-86
2022/12/08 04:55:07;;;;;;;40.85;27.02;;;;;;;;;;5034894;28;20045;-86
2022/12/08 04:57:33;;;;;;;40.83;25.60;;;;;;;2.79;100.00;67079.66;5027651;28;20040;-86
2022/12/08 04:59:58;;;;;;;36.70;20.73;;;;;;;;;;5010511;28;20044;-85
2022/12/08 05:02:23;;;;;;;44.00;29.83;;;;;;;2.79;100.00;67081.69;5023796;28;20041;-86
2022/12/08 05:04:49;;;;;;;39.78;21.67;;;;;;;;;;5030500;28;20034;-85
2022/12/08 05:07:14;;;;;;;41.90;29.23;;;;;;;;;;5028830;28;20045;-85
2022/12/08 05:09:39;;;;;;;43.25;25.40;;;;;;;2.79;100.00;67082.28;5006610;28;20045;-86
2022/12/08 05:12:05;;;;;;;38.60;25.95;;;;;;;2.80;100.00;67088.66;5015578;28;20277;-87
2022/12/08 05:14:30;;;;;;;41.75;24.33;;;;;;;;;;5038493;28;20041;-88
2022/12/08 05:16:55;;;;;;;38.35;22.90;;;;;;;;;;5036272;28;20042;-85
2022/12/08 05:19:21;;;;;;;43.25;27.10;;;;;;;2.80;100.00;67088.66;5026507;28;20038;-86
2022/12/08 05:21:46;;;;;;;38.35;23.58;;;;;;;2.82;100.00;67090.91;5023016;28;20041;-86
2022/12/08 05:24:11;;;;;;;24.95;14.88;;;;;;;;;;5023610;28;20042;-85
2022/12/08 05:26:37;;;;;;;39.85;27.08;;;;;;;;;;5007161;28;20069;-85
2022/12/08 05:29:02;;;;;;;33.28;19.33;;;;;;;2.81;100.00;67084.50;5008323;28;20033;-85
2022/12/08 05:31:28;;;;;;;42.03;30.88;;;;;;;2.81;100.00;67089.78;5009785;28;20103;-85
2022/12/08 05:33:53;;;;;;;33.38;18.75;;;;;;;2.80;100.00;67082.84;5006118;28;20050;-83
2022/12/08 05:36:18;;;;;;;29.23;17.10;;;;;;;;;;5004348;28;20052;-83
2022/12/08 05:38:44;;;;;;;34.35;22.85;;;;;;;;;;5008595;28;20037;-84
2022/12/08 05:41:13;;;;;;;28.17;17.63;;;;;;;2.77;100.00;67084.72;5009636;28;20539;-83
2022/12/08 05:43:38;;;;;;;24.80;13.52;;;;;;;2.76;100.00;67078.31;5008492;28;20038;-83
2022/12/08 05:46:04;;;;;;;26.67;16.83;;;;;;;;;;4992442;28;20185;-83
2022/12/08 05:48:29;;;;;;;27.73;14.55;;;;;;;;;;5008419;28;20077;-84
2022/12/08 05:50:54;;;;;;;31.02;19.25;;;;;;;;;;5007815;28;20129;-83
2022/12/08 05:53:20;;;;;;;31.30;21.80;;;;;;;2.76;100.00;67078.88;5009454;28;20207;-85
2022/12/08 05:55:45;;;;;;;26.63;14.95;;;;;;;;;;5003314;28;20145;-83
2022/12/08 05:58:15;;;;;;;28.90;17.67;;;;;;;2.76;100.00;67083.56;5002846;28;20046;-84
2022/12/08 06:00:41;;;;;;;31.38;21.20;;;;;;;;;;5007867;28;20038;-84
2022/12/08 06:03:06;;;;;;;31.45;18.60;;;;;;;;;;5014321;28;20176;-84
2022/12/08 06:05:32;;;;;;;31.85;22.25;;;;;;;2.77;100.00;67080.00;5006515;28;20048;-83
2022/12/08 06:07:58;;;;;;;25.80;16.23;;;;;;;;;;4996446;28;20046;-84
2022/12/08 06:10:23;;;;;;;26.00;15.95;;;;;;;;;;5002329;28;20181;-84
2022/12/08 06:12:48;;;;;;;25.77;16.70;;;;;;;2.77;100.00;67080.00;5002778;28;20056;-84
2022/12/08 06:15:14;;;;;;;22.40;15.00;;;;;;;2.75;100.00;67083.00;5018850;28;20069;-84
2022/12/08 06:17:39;;;;;;;22.85;13.80;;;;;;;2.76;100.00;67083.56;5013281;28;20046;-84
2022/12/08 06:20:05;;;;;;;25.00;16.88;;;;;;;;;;5014412;28;20042;-84
2022/12/08 06:22:30;;;;;;;27.55;17.48;;;;;;;;;;5022798;28;20046;-84
2022/12/08 06:24:55;;;;;;;23.67;17.27;;;;;;;;;;5025815;28;20041;-84
2022/12/08 06:27:21;;;;;;;23.38;16.77;;;;;;;2.72;100.00;67080.19;5018206;28;20053;-83
2022/12/08 06:29:46;;;;;;;22.63;16.05;;;;;;;;;;5012248;28;20100;-83
2022/12/08 06:32:11;;;;;;;19.13;11.70;;;;;;;;;;4999936;28;20049;-84
2022/12/08 06:34:36;;;;;;;19.70;12.18;;;;;;;2.64;100.00;67071.16;5013097;28;20046;-84
2022/12/08 06:37:02;;;;;;;16.58;10.40;;;;;;;2.62;100.00;67068.94;5002563;28;20402;-84
2022/12/08 06:39:27;;;;;;;17.17;11.10;;;;;;;2.61;100.00;67061.97;5000779;28;20401;-83
2022/12/08 06:44:37;;;;;;;12.27;9.18;;;;;;;2.50;100.00;67055.38;5012054;28;20139;-84
2022/12/08 06:47:02;;;;;;;13.13;9.45;;;;;;;2.49;100.00;67049.56;5016354;28;20497;-84
2022/12/08 06:49:27;;;;;;;14.88;9.27;;;;;;;2.47;100.00;67055.22;5000557;28;20050;-84
2022/12/08 06:51:53;;;;;;;14.15;9.63;;;;;;;2.44;100.00;67048.63;4998459;28;20077;-83
2022/12/08 06:54:18;;;;;;;15.98;8.52;;;;;;;;;;4999959;28;20053;-84
2022/12/08 06:56:43;;;;;;;15.00;10.52;;;;;;;2.43;100.00;67042.25;5002900;28;20104;-84
2022/12/08 06:59:09;;;;;;;17.67;13.38;;;;;;;2.43;100.00;67048.06;5005061;28;20037;-83
2022/12/08 07:01:34;;;;;;;14.07;8.40;;;;;;;2.41;100.00;67050.50;5001672;28;20072;-84
2022/12/08 07:03:59;;;;;;;13.05;7.68;;;;;;;;;;5002367;28;20124;-83
2022/12/08 07:06:25;;;;;;;12.32;9.05;;;;;;;2.39;100.00;67043.56;5022770;28;20048;-84
2022/12/08 07:08:50;;;;;;;16.75;9.52;;;;;;;;;;5009988;28;20038;-83
2022/12/08 07:11:16;;;;;;;26.35;13.75;;;;;;;2.41;100.00;67045.25;5026143;28;20049;-83
2022/12/08 07:13:42;;;;;;;21.10;14.00;;;;;;;2.39;100.00;67043.56;5022687;28;20049;-83
2022/12/08 07:16:08;;;;;;;21.23;13.32;;;;;;;;;;5029570;28;20049;-84
2022/12/08 07:18:34;;;;;;;20.38;14.02;;;;;;;;;;5025451;28;20420;-84
2022/12/08 07:21:10;;;;;;;23.05;16.38;;;;;;;2.40;100.00;67039.44;5015142;28;20037;-84
2022/12/08 07:23:36;;;;;;;32.55;22.20;;;;;;;2.40;100.00;67038.88;4992041;28;20052;-84
2022/12/08 07:26:04;;;;;;;27.58;18.90;;;;;;;2.41;100.00;67045.81;5030728;28;20049;-83
2022/12/08 07:28:30;;;;;;;26.10;14.45;;;;;;;;;;4988814;28;20057;-83
2022/12/08 07:30:55;;;;;;;27.60;17.20;;;;;;;;;;5007585;28;20072;-83
2022/12/08 07:33:21;;;;;;;28.13;17.60;;;;;;;;;;5010321;28;20037;-83
2022/12/08 07:35:53;;;;;;;20.77;12.93;;;;;;;2.42;100.00;67046.41;5002741;28;20088;-84
2022/12/08 07:38:19;;;;;;;23.88;14.20;;;;;;;2.41;100.00;67045.81;4992325;28;20045;-83
2022/12/08 07:40:44;;;;;;;20.20;11.80;;;;;;;;;;5003158;28;20074;-83
2022/12/08 07:43:09;;;;;;;23.08;15.13;;;;;;;2.39;100.00;67038.31;5013967;28;20038;-83
2022/12/08 07:45:35;;;;;;;18.95;14.18;;;;;;;;;;5004304;28;20041;-84
2022/12/08 07:48:00;;;;;;;24.70;15.18;;;;;;;;;;5000866;28;20041;-84
2022/12/08 07:50:25;;;;;;;25.20;17.08;;;;;;;;;;5003200;28;20038;-83
2022/12/08 07:52:50;;;;;;;17.95;10.43;;;;;;;2.41;100.00;67045.81;5008117;28;20043;-84
2022/12/08 07:55:16;;;;;;;20.13;13.07;;;;;;;;;;5009343;28;20108;-84
2022/12/08 07:57:41;;;;;;;16.42;9.95;;;;;;;2.38;100.00;67047.69;5009430;28;20058;-85
2022/12/08 08:00:07;;;;;;;18.30;10.35;;;;;;;2.39;100.00;67043.00;5010945;28;20088;-84
2022/12/08 08:02:32;;;;;;;19.38;13.65;;;;;;;;;;5013501;28;20129;-83
2022/12/08 08:04:57;;;;;;;18.48;11.80;;;;;;;2.43;100.00;67048.06;5009936;28;20034;-83
2022/12/08 08:07:23;;;;;;;18.33;12.10;;;;;;;;;;5009027;28;20100;-84
2022/12/08 08:09:48;;;;;;;17.48;11.15;;;;;;;2.45;100.00;67050.34;5006240;28;20065;-84
2022/12/08 08:12:13;;;;;;;21.02;15.05;;;;;;;2.45;100.00;67050.34;5012293;28;20417;-85
2022/12/08 08:14:39;;;;;;;15.60;10.38;;;;;;;;;;5007536;28;20133;-83
2022/12/08 08:17:04;;;;;;;20.13;12.23;;;;;;;2.41;100.00;67040.56;5005541;28;20038;-83
2022/12/08 08:19:29;;;;;;;19.17;12.13;;;;;;;2.43;100.00;67047.50;5008085;28;20049;-84
2022/12/08 08:21:55;;;;;;;19.00;12.57;;;;;;;2.40;100.00;67049.94;5007329;28;20585;-83
2022/12/08 08:24:21;;;;;;;20.48;13.88;;;;;;;2.43;100.00;67042.81;5005763;28;20049;-84
2022/12/08 08:26:46;;;;;;;21.30;14.75;;;;;;;2.42;100.00;67041.69;5006455;28;20052;-84
2022/12/08 08:29:11;;;;;;;21.08;14.35;;;;;;;;;;5009590;28;20041;-84
2022/12/08 08:31:37;;;;;;;20.73;13.65;;;;;;;;;;5002575;28;20525;-83
2022/12/08 08:34:04;;;;;;;17.98;10.93;;;;;;;;;;5010502;28;20100;-83
2022/12/08 08:36:30;;;;;;;20.50;12.20;;;;;;;;;;5008013;28;20533;-83
2022/12/08 08:38:55;;;;;;;20.58;12.98;;;;;;;2.44;100.00;67043.94;5008400;28;20129;-83
2022/12/08 08:41:20;;;;;;;19.98;14.18;;;;;;;2.44;100.00;67049.19;5007767;28;20046;-83
2022/12/08 08:43:46;;;;;;;20.30;13.05;;;;;;;;;;5009476;28;20060;-83
2022/12/08 08:46:11;;;;;;;16.73;10.20;;;;;;;2.40;100.00;67044.69;4995244;28;20050;-83
2022/12/08 08:48:36;;;;;;;18.83;10.35;;;;;;;2.40;100.00;67039.44;5001241;28;20236;-84
2022/12/08 08:51:07;;;;;;;16.15;11.60;;;;;;;2.40;100.00;67044.69;5008906;28;20041;-84
2022/12/08 08:53:33;;;;;;;18.67;11.90;;;;;;;;;;4999622;28;20048;-83
2022/12/08 08:55:58;;;;;;;20.40;13.48;;;;;;;2.41;100.00;67045.25;5026633;28;20042;-84
2022/12/08 08:58:23;;;;;;;18.50;11.75;;;;;;;2.40;100.00;67044.69;5027186;28;20056;-83
2022/12/08 09:00:49;;;;;;;21.45;14.23;;;;;;;;;;5030688;28;20037;-84
2022/12/08 09:03:14;;;;;;;23.40;15.63;;;;;;;;;;5026608;28;20045;-83
2022/12/08 09:05:40;;;;;;;18.23;13.43;;;;;;;;;;5031270;28;20041;-83
2022/12/08 09:08:06;;;;;;;17.30;11.07;;;;;;;2.37;100.00;67033.44;5031764;28;20055;-84
2022/12/08 09:10:31;;;;;;;18.95;13.82;;;;;;;;;;5031278;28;20797;-83
2022/12/08 09:12:56;;;;;;;14.88;9.23;;;;;;;;;;5026394;28;20052;-84
2022/12/08 09:15:21;;;;;;;14.93;8.45;;;;;;;2.39;100.00;67043.56;5039415;28;20041;-84
2022/12/08 09:17:47;;;;;;;17.10;12.93;;;;;;;2.44;100.00;67049.19;5028196;28;20124;-84
2022/12/08 09:20:12;;;;;;;18.35;13.55;;;;;;;;;;5029871;28;20042;-83
2022/12/08 09:22:37;;;;;;;16.80;10.45;;;;;;;2.42;100.00;67049.03;5029348;28;20069;-83
2022/12/08 09:25:03;;;;;;;18.42;11.52;;;;;;;2.51;100.00;67056.53;5029100;28;20061;-84
2022/12/08 09:27:29;;;;;;;17.08;11.98;;;;;;;2.49;100.00;67054.81;5014573;28;20050;-83
2022/12/08 09:29:54;;;;;;;15.88;10.27;;;;;;;;;;5018821;28;20065;-84
2022/12/08 09:32:20;;;;;;;16.67;12.35;;;;;;;;;;5033139;28;20100;-84
2022/12/08 09:34:45;;;;;;;16.45;11.80;;;;;;;2.55;100.00;67061.03;5031177;28;20050;-84
2022/12/08 09:37:10;;;;;;;15.05;10.98;;;;;;;2.52;100.00;67057.09;5017321;28;20501;-84
2022/12/08 09:39:36;;;;;;;17.83;12.20;;;;;;;2.57;100.00;67065.34;5038247;28;20252;-84
2022/12/08 09:42:05;;;;;;;15.93;10.48;;;;;;;2.54;100.00;67054.66;5034270;28;20048;-84
2022/12/08 09:44:46;;;;;;;16.40;10.23;;;;;;;2.53;100.00;67052.97;5033128;28;20068;-84
2022/12/08 09:47:53;;;;;;;14.48;10.00;;;;;;;2.56;100.00;67061.59;5021017;28;20041;-84
2022/12/08 09:50:38;;;;;;;16.98;12.15;;;;;;;2.59;100.00;67059.72;5007158;28;20042;-83
2022/12/08 09:53:20;;;;;;;16.58;9.80;;;;;;;;;;5017084;28;20045;-83
2022/12/08 09:55:48;;;;;;;16.75;8.75;;;;;;;;;;5026260;28;20042;-84
2022/12/08 09:58:50;;;;;;;18.00;12.30;;;;;;;2.62;100.00;67063.69;5014344;28;20038;-83
2022/12/08 10:01:18;;;;;;;14.73;10.15;;;;;;;2.63;100.00;67064.22;4999773;28;20045;-83
2022/12/08 10:03:44;;;;;;;16.73;11.32;;;;;;;2.66;100.00;67067.63;5029959;28;20500;-83
2022/12/08 10:06:38;;;;;;;14.45;10.05;;;;;;;2.66;100.00;67067.63;5028455;28;20076;-83
2022/12/08 10:09:31;;;;;;;15.75;10.60;;;;;;;2.66;100.00;67072.88;5019183;28;20038;-84
2022/12/08 10:12:03;;;;;;;17.25;11.88;;;;;;;2.67;100.00;67068.72;5022400;28;20572;-83
2022/12/08 10:14:41;;;;;;;19.52;12.80;;;;;;;2.69;100.00;67076.81;5023169;28;20096;-83
2022/12/08 10:17:16;;;;;;;16.17;10.75;;;;;;;2.63;100.00;67064.22;5009514;28;20045;-83
2022/12/08 10:19:43;;;;;;;11.40;8.65;;;;;;;2.61;100.00;67062.53;5007719;28;20041;-84
2022/12/08 10:22:17;;;;;;;14.35;8.25;;;;;;;2.60;100.00;67066.66;5027500;28;20053;-83
2022/12/08 10:24:49;;;;;;;13.63;9.52;;;;;;;;;;5007185;28;20034;-83
2022/12/08 10:27:14;;;;;;;14.45;10.27;;;;;;;2.64;100.00;67065.91;5028542;28;20041;-84
2022/12/08 10:29:40;;;;;;;17.58;9.63;;;;;;;2.69;100.00;67079.44;5023632;28;20126;-83
2022/12/08 10:32:16;;;;;;;16.08;11.00;;;;;;;2.75;100.00;67077.19;5028072;28;20501;-84
2022/12/08 10:35:06;;;;;;;17.90;11.85;;;;;;;2.72;100.00;67079.63;4996680;28;20120;-83
2022/12/08 10:37:32;;;;;;;14.60;10.15;;;;;;;2.71;100.00;67078.50;5028863;28;20092;-84
2022/12/08 10:40:17;;;;;;;14.90;10.77;;;;;;;2.74;100.00;67081.88;5026475;28;20091;-83
2022/12/08 10:42:47;;;;;;;14.52;9.38;;;;;;;;;;4975300;28;20045;-83
2022/12/08 10:45:22;;;;;;;16.38;11.88;;;;;;;2.76;100.00;67084.13;5025254;28;20137;-84
2022/12/08 10:47:59;;;;;;;12.30;7.47;;;;;;;2.78;100.00;67081.13;5024469;28;20046;-83
2022/12/08 10:50:44;;;;;;;11.98;7.00;;;;;;;2.75;100.00;67082.44;5009554;28;20604;-83
2022/12/08 10:53:12;;;;;;;14.23;7.68;;;;;;;2.75;100.00;67083.00;5028048;28;20369;-84
2022/12/08 10:56:06;;;;;;;11.45;6.78;;;;;;;;;;5022789;28;20041;-83
2022/12/08 10:58:34;;;;;;;12.57;7.97;;;;;;;;;;5009280;28;20092;-83
2022/12/08 11:01:24;;;;;;;12.90;5.72;;;;;;;2.70;100.00;67072.69;5028988;28;20063;-84
2022/12/08 11:03:51;;;;;;;8.07;4.32;;;;;;;;;;4986138;28;20049;-83
2022/12/08 11:06:38;;;;;;;12.63;7.38;;;;;;;2.73;100.00;67080.75;4998218;28;20053;-83
2022/12/08 11:09:21;;;;;;;8.95;5.20;;;;;;;2.72;100.00;67074.38;5005155;28;20037;-84
2022/12/08 11:11:56;;;;;;;9.95;6.40;;;;;;;2.78;100.00;67085.81;5014627;28;20042;-83
2022/12/08 11:14:31;;;;;;;8.07;5.35;;;;;;;2.79;100.00;67086.94;5030148;28;20174;-83
2022/12/08 11:17:08;;;;;;;10.05;6.85;;;;;;;2.80;100.00;67088.66;5008783;28;20099;-84
2022/12/08 11:19:38;;;;;;;11.25;6.95;;;;;;;2.92;100.00;67102.16;4987952;28;20042;-84
2022/12/08 11:22:22;;;;;;;8.65;5.38;;;;;;;;;;4989081;28;20045;-84
2022/12/08 11:25:09;;;;;;;9.23;4.82;;;;;;;;;;5022877;28;20128;-83
2022/12/08 11:27:35;;;;;;;6.35;3.83;;;;;;;;;;4988157;28;20042;-84
2022/12/08 11:30:02;;;;;;;7.43;5.00;;;;;;;2.80;100.00;67083.41;5013423;28;20049;-84
2022/12/08 11:32:28;;;;;;;8.70;4.40;;;;;;;2.80;100.00;67088.09;5034283;28;20049;-84
2022/12/08 11:34:59;;;;;;;8.57;6.25;;;;;;;2.79;100.00;67086.94;5024792;28;20125;-84
2022/12/08 11:37:31;;;;;;;7.40;3.95;;;;;;;2.86;100.00;67095.41;5033979;28;20105;-84
2022/12/08 11:40:02;;;;;;;9.20;4.10;;;;;;;2.85;100.00;67089.03;5036778;28;20073;-83
2022/12/08 11:43:01;;;;;;;12.48;6.82;;;;;;;2.87;100.00;67095.97;5035700;28;20600;-83
2022/12/08 11:45:30;;;;;;;9.43;5.43;;;;;;;2.88;100.00;67100.31;5015021;28;20053;-83
2022/12/08 11:48:35;;;;;;;11.32;7.68;;;;;;;2.95;100.00;67105.00;5017177;28;20037;-83
2022/12/08 11:51:26;;;;;;;8.93;5.47;;;;;;;2.94;100.00;67104.44;5000443;28;20442;-83
2022/12/08 11:53:51;;;;;;;9.55;5.70;;;;;;;;;;5006715;28;20676;-84
2022/12/08 11:56:39;;;;;;;11.85;7.30;;;;;;;2.97;100.00;67101.44;5023200;28;20301;-84
2022/12/08 11:59:37;;;;;;;15.32;10.40;;;;;;;3.03;100.00;67105.56;5041294;28;20037;-83
2022/12/08 12:02:04;;;;;;;15.80;7.53;;;;;;;3.01;100.00;67111.19;4991212;28;20042;-84
2022/12/08 12:04:51;;;;;;;14.75;8.20;;;;;;;3.01;100.00;67113.81;5037417;28;20041;-84
2022/12/08 12:07:50;;;;;;;10.27;6.35;;;;;;;3.02;100.00;67104.44;5021052;28;20041;-84
2022/12/08 12:10:24;;;;;;;10.13;7.88;;;;;;;;;;5019004;28;20403;-84
2022/12/08 12:13:08;;;;;;;11.02;7.82;;;;;;;;;;5034630;28;20049;-84
2022/12/08 12:16:06;;;;;;;11.43;7.18;;;;;;;3.00;100.00;67113.25;5031330;28;20048;-84
2022/12/08 12:18:39;;;;;;;9.20;5.75;;;;;;;3.00;100.00;67110.63;5031048;28;20042;-84
2022/12/08 12:21:28;;;;;;;9.45;6.72;;;;;;;3.03;100.00;67114.00;5038270;28;20029;-84
2022/12/08 12:23:56;;;;;;;;;;;;;;;3.01;100.00;67111.19;4991909;28;20042;-83
2022/12/08 12:26:24;;;;;;;8.80;6.43;;;;;;;3.00;100.00;67110.63;5025388;28;20708;-83
2022/12/08 12:29:01;;;;;;;10.33;6.07;;;;;;;3.02;100.00;67112.91;5026354;28;20376;-83
2022/12/08 12:31:29;;;;;;;11.98;8.48;;;;;;;;;;5010390;28;20292;-83
2022/12/08 12:34:05;;;;;;;12.52;8.88;;;;;;;3.09;100.00;67120.78;5032578;28;20128;-83
2022/12/08 12:36:31;;;;;;;9.57;6.38;;;;;;;3.06;100.00;67116.84;4997031;28;20038;-83
2022/12/08 12:39:01;;;;;;;13.75;8.38;;;;;;;3.12;100.00;67123.59;5017270;28;20037;-83